Time;durP1;ratioP1;P1;durP2;ratioP2;P2;SDS_P1;SDS_P2;PMS_P1;PMS_P2;Temp;Humidity;BMP_temperature;BMP_pressure;BME280_temperature;BME280_humidity;BME280_pressure;Samples;Min_cycle;Max_cycle;Signal;HPM_P1;HPM_P2
2023/05/23 00:00:34;;;;;;;;;;;22.30;54.30;;;;;;5070217;28;20079;-57
2023/05/23 00:03:00;;;;;;;;;;;22.30;54.30;;;;;;5071917;28;20007;-57
2023/05/23 00:05:28;;;;;;;;;;;22.30;54.90;;;;;;5067256;28;19928;-57
2023/05/23 00:07:56;;;;;;;;;;;22.30;54.30;;;;;;5068719;28;19956;-57
2023/05/23 00:10:25;;;;;;;;;;;22.30;54.60;;;;;;5071719;28;19921;-57
2023/05/23 00:12:52;;;;;;;;;;;22.20;54.30;;;;;;5073379;28;19927;-57
2023/05/23 00:15:18;;;;;;;;;;;22.20;54.30;;;;;;5071583;28;19925;-56
2023/05/23 00:17:45;;;;;;;;;;;22.30;54.50;;;;;;5070406;28;19925;-57
2023/05/23 00:20:12;;;;;;;;;;;22.20;54.40;;;;;;5069107;28;19947;-56
2023/05/23 00:22:41;;;;;;;;;;;22.30;54.50;;;;;;5075204;28;19963;-57
2023/05/23 00:25:13;;;;;;;;;;;22.30;54.50;;;;;;5072770;28;19920;-57
2023/05/23 00:27:39;;;;;;;;;;;22.30;54.50;;;;;;5069667;28;19978;-56
2023/05/23 00:30:07;;;;;;;;;;;22.30;54.50;;;;;;5070876;28;19924;-58
2023/05/23 00:32:34;;;;;;;;;;;22.30;54.50;;;;;;5070031;28;19951;-57
2023/05/23 00:35:01;;;;;;;;;;;22.30;54.50;;;;;;5070152;28;20007;-57
2023/05/23 00:37:28;;;;;;;;;;;22.20;54.40;;;;;;5071224;28;19920;-57
2023/05/23 00:39:54;;;;;;;;;;;22.20;54.40;;;;;;5070975;28;19928;-57
2023/05/23 00:42:23;;;;;;;;;;;22.30;54.50;;;;;;5070919;28;20089;-57
2023/05/23 00:44:50;;;;;;;;;;;22.20;54.40;;;;;;5072741;28;19989;-57
2023/05/23 00:47:17;;;;;;;;;;;22.20;54.40;;;;;;5074354;28;19920;-57
2023/05/23 00:49:43;;;;;;;;;;;22.20;54.40;;;;;;5071073;28;19940;-57
2023/05/23 00:52:10;;;;;;;;;;;22.30;54.50;;;;;;5071397;28;19925;-57
2023/05/23 00:54:37;;;;;;;;;;;22.20;54.30;;;;;;5074610;28;19927;-57
2023/05/23 00:57:04;;;;;;;;;;;22.30;54.50;;;;;;5071364;28;19982;-57
2023/05/23 00:59:32;;;;;;;;;;;22.20;54.30;;;;;;5066202;28;19921;-57
2023/05/23 01:01:59;;;;;;;;;;;22.20;54.30;;;;;;5075411;28;19920;-57
2023/05/23 01:04:27;;;;;;;;;;;22.20;54.20;;;;;;5070882;28;20181;-57
2023/05/23 01:06:54;;;;;;;;;;;22.20;54.20;;;;;;5073688;28;19921;-57
2023/05/23 01:09:20;;;;;;;;;;;22.20;54.20;;;;;;5073946;28;19924;-57
2023/05/23 01:11:50;;;;;;;;;;;22.20;54.20;;;;;;5094578;28;19921;-57
2023/05/23 01:14:18;;;;;;;;;;;22.20;54.20;;;;;;5068435;28;20045;-57
2023/05/23 01:16:47;;;;;;;;;;;22.20;54.30;;;;;;5073446;28;19920;-57
2023/05/23 01:19:21;;;;;;;;;;;22.20;54.30;;;;;;5074347;28;19947;-57
2023/05/23 01:21:51;;;;;;;;;;;22.20;54.30;;;;;;5098562;28;19928;-57
2023/05/23 01:24:27;;;;;;;;;;;22.20;54.30;;;;;;5070719;28;20007;-56
2023/05/23 01:26:59;;;;;;;;;;;22.20;54.40;;;;;;5091438;28;19924;-57
2023/05/23 01:29:28;;;;;;;;;;;22.20;54.40;;;;;;5075354;28;19994;-57
2023/05/23 01:31:55;;;;;;;;;;;22.20;54.40;;;;;;5068590;28;19924;-57
2023/05/23 01:34:22;;;;;;;;;;;22.20;54.50;;;;;;5071781;28;20378;-56
2023/05/23 01:36:49;;;;;;;;;;;22.20;54.50;;;;;;5068600;28;19920;-57
2023/05/23 01:39:19;;;;;;;;;;;22.20;54.60;;;;;;5094159;28;19970;-57
2023/05/23 01:41:48;;;;;;;;;;;22.20;54.60;;;;;;5070673;28;20027;-57
2023/05/23 01:44:15;;;;;;;;;;;22.20;54.60;;;;;;5065866;28;19947;-58
2023/05/23 01:46:44;;;;;;;;;;;22.20;54.60;;;;;;5066469;28;19981;-58
2023/05/23 01:49:11;;;;;;;;;;;22.20;54.70;;;;;;5066742;28;20371;-58
2023/05/23 01:51:39;;;;;;;;;;;22.20;54.70;;;;;;5067852;28;19948;-58
2023/05/23 01:54:06;;;;;;;;;;;22.20;54.70;;;;;;5092978;28;19977;-57
2023/05/23 01:56:33;;;;;;;;;;;22.20;54.70;;;;;;5068452;28;20212;-57
2023/05/23 01:59:00;;;;;;;;;;;22.20;54.60;;;;;;5067003;28;19925;-57
2023/05/23 02:01:27;;;;;;;;;;;22.20;54.60;;;;;;5093296;28;19925;-57
2023/05/23 02:03:55;;;;;;;;;;;22.20;54.60;;;;;;5067016;28;19920;-57
2023/05/23 02:06:22;;;;;;;;;;;22.20;54.60;;;;;;5067862;28;19924;-58
2023/05/23 02:08:48;;;;;;;;;;;22.20;54.50;;;;;;5067252;28;20001;-57
2023/05/23 02:11:15;;;;;;;;;;;22.20;54.50;;;;;;5069109;28;19928;-57
2023/05/23 02:13:42;;;;;;;;;;;22.10;54.40;;;;;;5068859;28;19970;-55
2023/05/23 02:16:10;;;;;;;;;;;22.10;54.40;;;;;;5069116;28;19927;-57
2023/05/23 02:18:39;;;;;;;;;;;22.10;54.40;;;;;;5089418;28;19929;-57
2023/05/23 02:21:07;;;;;;;;;;;22.10;54.40;;;;;;5067590;28;19981;-57
2023/05/23 02:23:33;;;;;;;;;;;22.10;54.40;;;;;;5068036;28;19921;-57
2023/05/23 02:26:00;;;;;;;;;;;22.10;54.30;;;;;;5066423;28;19924;-57
2023/05/23 02:28:27;;;;;;;;;;;22.10;54.30;;;;;;5067923;28;19968;-57
2023/05/23 02:30:54;;;;;;;;;;;22.10;54.30;;;;;;5067798;28;19942;-57
2023/05/23 02:33:22;;;;;;;;;;;22.10;54.30;;;;;;5071651;28;19953;-57
2023/05/23 02:35:50;;;;;;;;;;;22.10;54.30;;;;;;5076103;28;19920;-57
2023/05/23 02:38:19;;;;;;;;;;;22.10;54.30;;;;;;5070972;28;19930;-57
2023/05/23 02:40:46;;;;;;;;;;;22.10;54.20;;;;;;5071399;28;19983;-57
2023/05/23 02:43:12;;;;;;;;;;;22.10;54.20;;;;;;5101459;27;20248;-55
2023/05/23 02:45:39;;;;;;;;;;;22.10;54.10;;;;;;5073153;28;19925;-57
2023/05/23 02:48:06;;;;;;;;;;;22.10;54.10;;;;;;5071464;28;19928;-57
2023/05/23 02:50:33;;;;;;;;;;;22.10;54.10;;;;;;5072260;28;19920;-57
2023/05/23 02:52:59;;;;;;;;;;;22.10;54.10;;;;;;5095254;27;19932;-58
2023/05/23 02:55:27;;;;;;;;;;;22.10;54.10;;;;;;5072404;28;20002;-57
2023/05/23 02:57:55;;;;;;;;;;;22.10;54.10;;;;;;5072176;28;19925;-57
2023/05/23 03:00:25;;;;;;;;;;;22.10;54.10;;;;;;5070376;28;19974;-58
2023/05/23 03:02:52;;;;;;;;;;;22.00;53.90;;;;;;5069850;28;20247;-57
2023/05/23 03:05:19;;;;;;;;;;;22.00;53.90;;;;;;5072003;28;20402;-57
2023/05/23 03:07:46;;;;;;;;;;;22.00;53.90;;;;;;5074245;28;19932;-57
2023/05/23 03:10:13;;;;;;;;;;;22.00;53.90;;;;;;5070223;28;19933;-57
2023/05/23 03:12:42;;;;;;;;;;;22.00;53.80;;;;;;5068311;28;19924;-58
2023/05/23 03:15:09;;;;;;;;;;;22.00;53.80;;;;;;5096010;28;20359;-57
2023/05/23 03:17:36;;;;;;;;;;;22.00;53.80;;;;;;5070350;28;20389;-57
2023/05/23 03:20:03;;;;;;;;;;;22.00;53.80;;;;;;5072057;28;20008;-57
2023/05/23 03:22:30;;;;;;;;;;;22.00;53.70;;;;;;5070711;28;20269;-58
2023/05/23 03:24:57;;;;;;;;;;;22.00;53.80;;;;;;5070611;28;19928;-57
2023/05/23 03:27:24;;;;;;;;;;;22.00;53.70;;;;;;5069768;28;19928;-57
2023/05/23 03:29:52;;;;;;;;;;;22.00;53.70;;;;;;5065936;28;20385;-58
2023/05/23 03:32:19;;;;;;;;;;;22.00;54.20;;;;;;5070325;28;19924;-57
2023/05/23 03:34:45;;;;;;;;;;;22.00;53.60;;;;;;5069982;28;19924;-57
2023/05/23 03:37:12;;;;;;;;;;;22.00;53.60;;;;;;5068411;28;20151;-57
2023/05/23 03:39:39;;;;;;;;;;;22.00;53.60;;;;;;5070006;28;19943;-57
2023/05/23 03:42:10;;;;;;;;;;;22.00;53.60;;;;;;5069851;28;19920;-57
2023/05/23 03:44:37;;;;;;;;;;;22.00;53.60;;;;;;5067487;28;19925;-57
2023/05/23 03:47:05;;;;;;;;;;;22.00;53.60;;;;;;5071467;28;19946;-58
2023/05/23 03:49:32;;;;;;;;;;;21.90;53.50;;;;;;5072590;28;19931;-57
2023/05/23 03:51:59;;;;;;;;;;;21.90;53.50;;;;;;5099189;27;20001;-57
2023/05/23 03:54:26;;;;;;;;;;;22.00;53.60;;;;;;5069430;28;19963;-57
2023/05/23 03:56:53;;;;;;;;;;;21.90;53.50;;;;;;5070512;28;19937;-57
2023/05/23 03:59:22;;;;;;;;;;;21.90;53.50;;;;;;5070924;28;19920;-58
2023/05/23 04:01:49;;;;;;;;;;;21.90;53.50;;;;;;5066716;28;19943;-57
2023/05/23 04:04:17;;;;;;;;;;;21.90;53.50;;;;;;5065602;28;19927;-57
2023/05/23 04:06:44;;;;;;;;;;;21.90;53.40;;;;;;5071724;28;20114;-57
2023/05/23 04:09:10;;;;;;;;;;;21.90;53.40;;;;;;5070019;28;19924;-57
2023/05/23 04:11:37;;;;;;;;;;;21.90;53.40;;;;;;5069943;28;19935;-58
2023/05/23 04:14:04;;;;;;;;;;;21.90;53.30;;;;;;5069801;28;20366;-57
2023/05/23 04:16:32;;;;;;;;;;;21.90;53.30;;;;;;5068659;28;19970;-58
2023/05/23 04:18:58;;;;;;;;;;;21.90;53.20;;;;;;5070776;28;20273;-57
2023/05/23 04:21:27;;;;;;;;;;;21.90;53.20;;;;;;5068616;28;19959;-57
2023/05/23 04:23:53;;;;;;;;;;;21.90;53.20;;;;;;5066655;28;19927;-57
2023/05/23 04:26:20;;;;;;;;;;;21.90;53.20;;;;;;5070695;28;19921;-57
2023/05/23 04:28:47;;;;;;;;;;;21.90;53.20;;;;;;5070496;28;19940;-57
2023/05/23 04:31:14;;;;;;;;;;;21.80;53.10;;;;;;5068854;28;19925;-57
2023/05/23 04:33:41;;;;;;;;;;;21.80;53.10;;;;;;5071364;28;19924;-57
2023/05/23 04:36:09;;;;;;;;;;;21.80;53.00;;;;;;5069950;28;19982;-57
2023/05/23 04:38:39;;;;;;;;;;;21.80;53.00;;;;;;5070922;28;20016;-57
2023/05/23 04:41:08;;;;;;;;;;;21.90;53.00;;;;;;5070781;28;20189;-57
2023/05/23 04:43:36;;;;;;;;;;;21.80;52.90;;;;;;5068392;28;20247;-58
2023/05/23 04:46:02;;;;;;;;;;;21.80;52.90;;;;;;5070831;28;19921;-57
2023/05/23 04:48:30;;;;;;;;;;;21.80;52.90;;;;;;5069586;28;19921;-58
2023/05/23 04:51:01;;;;;;;;;;;21.80;52.90;;;;;;5068562;28;20351;-58
2023/05/23 04:53:27;;;;;;;;;;;21.80;52.80;;;;;;5070021;28;19920;-58
2023/05/23 04:55:56;;;;;;;;;;;21.80;52.90;;;;;;5067788;28;19943;-58
2023/05/23 04:58:23;;;;;;;;;;;21.80;52.80;;;;;;5069572;28;19925;-57
2023/05/23 05:00:49;;;;;;;;;;;21.80;52.80;;;;;;5064612;28;20630;-57
2023/05/23 05:03:16;;;;;;;;;;;21.80;52.80;;;;;;5067874;28;20074;-57
2023/05/23 05:05:43;;;;;;;;;;;21.80;52.80;;;;;;5068626;28;19932;-57
2023/05/23 05:08:10;;;;;;;;;;;21.80;52.80;;;;;;5070160;28;19936;-58
2023/05/23 05:10:38;;;;;;;;;;;21.80;52.80;;;;;;5071776;28;19920;-57
2023/05/23 05:13:06;;;;;;;;;;;21.80;52.80;;;;;;5066789;28;19955;-57
2023/05/23 05:15:33;;;;;;;;;;;21.80;52.80;;;;;;5069926;28;20026;-58
2023/05/23 05:17:59;;;;;;;;;;;21.80;52.80;;;;;;5070086;28;19927;-57
2023/05/23 05:20:26;;;;;;;;;;;21.80;52.80;;;;;;5070742;28;19966;-58
2023/05/23 05:22:56;;;;;;;;;;;21.80;52.80;;;;;;5102802;28;19966;-57
2023/05/23 05:25:23;;;;;;;;;;;21.80;52.80;;;;;;5066208;28;20262;-58
2023/05/23 05:27:51;;;;;;;;;;;21.80;52.90;;;;;;5071511;28;19928;-57
2023/05/23 05:30:19;;;;;;;;;;;21.80;52.90;;;;;;5097857;28;19921;-57
2023/05/23 05:32:47;;;;;;;;;;;21.70;52.70;;;;;;5065519;28;20329;-57
2023/05/23 05:35:14;;;;;;;;;;;21.80;52.90;;;;;;5068766;28;19924;-58
2023/05/23 05:37:40;;;;;;;;;;;21.80;52.90;;;;;;5072182;28;20374;-57
2023/05/23 05:40:08;;;;;;;;;;;21.80;52.90;;;;;;5068750;28;20235;-57
2023/05/23 05:42:35;;;;;;;;;;;21.80;52.90;;;;;;5065669;28;20353;-58
2023/05/23 05:45:02;;;;;;;;;;;21.80;52.90;;;;;;5056368;28;19966;-57
2023/05/23 05:47:30;;;;;;;;;;;21.70;52.80;;;;;;5078160;28;19932;-57
2023/05/23 05:49:57;;;;;;;;;;;21.80;53.00;;;;;;5070245;28;19924;-57
2023/05/23 05:52:24;;;;;;;;;;;21.80;53.00;;;;;;5076204;28;19920;-58
2023/05/23 05:54:51;;;;;;;;;;;21.70;52.90;;;;;;5080827;28;19931;-57
2023/05/23 05:57:18;;;;;;;;;;;21.70;53.00;;;;;;5091942;28;19920;-57
2023/05/23 05:59:45;;;;;;;;;;;21.70;53.00;;;;;;5063509;28;19936;-56
2023/05/23 06:02:11;;;;;;;;;;;21.70;53.00;;;;;;5063538;28;19925;-57
2023/05/23 06:04:40;;;;;;;;;;;21.70;53.10;;;;;;5071286;28;19966;-57
2023/05/23 06:07:06;;;;;;;;;;;21.70;53.10;;;;;;5073852;28;19931;-57
2023/05/23 06:09:33;;;;;;;;;;;21.70;53.10;;;;;;5074941;28;19925;-58
2023/05/23 06:12:01;;;;;;;;;;;21.70;53.20;;;;;;5077213;28;19962;-57
2023/05/23 06:14:28;;;;;;;;;;;21.70;53.20;;;;;;5067462;28;20019;-57
2023/05/23 06:16:55;;;;;;;;;;;21.70;53.20;;;;;;5082799;28;19973;-58
2023/05/23 06:19:22;;;;;;;;;;;21.70;53.20;;;;;;5080810;28;19932;-57
2023/05/23 06:21:52;;;;;;;;;;;21.70;53.20;;;;;;5067282;28;19925;-58
2023/05/23 06:24:19;;;;;;;;;;;21.70;53.20;;;;;;5069254;28;19931;-57
2023/05/23 06:26:46;;;;;;;;;;;21.70;53.30;;;;;;5086637;28;19920;-58
2023/05/23 06:29:13;;;;;;;;;;;21.70;53.30;;;;;;5078602;28;20313;-57
2023/05/23 06:31:39;;;;;;;;;;;21.70;53.30;;;;;;5065472;28;20528;-57
2023/05/23 06:34:06;;;;;;;;;;;21.70;53.30;;;;;;5072517;28;19964;-56
2023/05/23 06:36:33;;;;;;;;;;;21.70;53.30;;;;;;5072125;28;19964;-58
2023/05/23 06:39:01;;;;;;;;;;;21.70;53.30;;;;;;5090934;28;19927;-57
2023/05/23 06:41:28;;;;;;;;;;;21.70;53.30;;;;;;5084558;28;20313;-58
2023/05/23 06:43:55;;;;;;;;;;;21.70;53.40;;;;;;5071411;28;19947;-58
2023/05/23 06:46:22;;;;;;;;;;;21.70;53.30;;;;;;5069567;28;20317;-57
2023/05/23 06:48:49;;;;;;;;;;;21.70;53.40;;;;;;5069376;28;19932;-57
2023/05/23 06:51:15;;;;;;;;;;;21.70;53.40;;;;;;5070093;28;19991;-58
2023/05/23 06:53:42;;;;;;;;;;;21.70;53.40;;;;;;5073053;28;19928;-58
2023/05/23 06:56:10;;;;;;;;;;;21.70;53.40;;;;;;5070232;28;19963;-57
2023/05/23 06:58:37;;;;;;;;;;;21.70;53.40;;;;;;5072246;28;19963;-59
2023/05/23 07:01:04;;;;;;;;;;;21.80;53.50;;;;;;5100436;27;19929;-57
2023/05/23 07:03:32;;;;;;;;;;;21.80;53.50;;;;;;5072114;28;19928;-58
2023/05/23 07:05:58;;;;;;;;;;;21.70;53.40;;;;;;5073409;28;19921;-58
2023/05/23 07:08:25;;;;;;;;;;;21.80;53.50;;;;;;5071385;28;19921;-59
2023/05/23 07:10:52;;;;;;;;;;;21.80;53.60;;;;;;5071221;28;19981;-57
2023/05/23 07:13:20;;;;;;;;;;;21.80;53.50;;;;;;5074631;28;19965;-58
2023/05/23 07:15:47;;;;;;;;;;;21.70;53.40;;;;;;5070187;28;19978;-58
2023/05/23 07:18:13;;;;;;;;;;;21.80;53.60;;;;;;5071100;28;19989;-58
2023/05/23 07:20:40;;;;;;;;;;;21.80;53.50;;;;;;5075775;28;20340;-57
2023/05/23 07:23:07;;;;;;;;;;;21.80;53.60;;;;;;5072162;28;19920;-58
2023/05/23 07:25:34;;;;;;;;;;;21.80;53.60;;;;;;5073569;28;19920;-58
2023/05/23 07:28:00;;;;;;;;;;;21.80;53.60;;;;;;5073178;28;19974;-57
2023/05/23 07:30:28;;;;;;;;;;;21.80;53.50;;;;;;5068266;28;19925;-57
2023/05/23 07:32:55;;;;;;;;;;;21.80;53.50;;;;;;5069935;28;19932;-58
2023/05/23 07:35:24;;;;;;;;;;;21.80;53.40;;;;;;5070658;28;19924;-58
2023/05/23 07:37:51;;;;;;;;;;;21.80;53.30;;;;;;5070737;28;19932;-57
2023/05/23 07:40:18;;;;;;;;;;;21.80;53.30;;;;;;5069202;28;19920;-58
2023/05/23 07:42:45;;;;;;;;;;;21.80;53.30;;;;;;5069967;28;20414;-58
2023/05/23 07:45:12;;;;;;;;;;;21.80;53.20;;;;;;5069681;28;20392;-59
2023/05/23 07:47:41;;;;;;;;;;;21.80;53.20;;;;;;5070620;28;19970;-58
2023/05/23 07:50:08;;;;;;;;;;;21.80;53.10;;;;;;5069682;28;19969;-58
2023/05/23 07:52:35;;;;;;;;;;;21.70;53.00;;;;;;5069996;28;19927;-58
2023/05/23 07:55:02;;;;;;;;;;;21.80;53.00;;;;;;5071184;28;19928;-58
2023/05/23 07:57:29;;;;;;;;;;;21.70;52.90;;;;;;5069510;28;19974;-58
2023/05/23 07:59:56;;;;;;;;;;;21.70;52.80;;;;;;5069266;28;20304;-58
2023/05/23 08:02:22;;;;;;;;;;;21.70;53.40;;;;;;5068923;28;20390;-57
2023/05/23 08:04:52;;;;;;;;;;;21.70;52.80;;;;;;5070653;28;19932;-57
2023/05/23 08:07:18;;;;;;;;;;;21.70;52.70;;;;;;5099626;27;19920;-57
2023/05/23 08:09:45;;;;;;;;;;;21.70;52.70;;;;;;5072101;28;19924;-57
2023/05/23 08:12:12;;;;;;;;;;;21.70;52.60;;;;;;5068497;28;19933;-58
2023/05/23 08:14:39;;;;;;;;;;;21.70;52.50;;;;;;5068977;28;19935;-58
2023/05/23 08:17:05;;;;;;;;;;;21.70;52.40;;;;;;5069715;28;19979;-57
2023/05/23 08:19:32;;;;;;;;;;;21.70;52.30;;;;;;5068817;28;19932;-58
2023/05/23 08:22:00;;;;;;;;;;;21.70;52.30;;;;;;5068554;28;19968;-58
2023/05/23 08:24:29;;;;;;;;;;;21.70;52.20;;;;;;5069153;28;19947;-58
2023/05/23 08:26:55;;;;;;;;;;;21.70;52.10;;;;;;5069511;28;19921;-58
2023/05/23 08:29:22;;;;;;;;;;;21.60;52.00;;;;;;5069355;28;19924;-59
2023/05/23 08:31:51;;;;;;;;;;;21.70;52.00;;;;;;5067198;28;19932;-59
2023/05/23 08:34:18;;;;;;;;;;;21.70;51.90;;;;;;5096458;28;19947;-59
2023/05/23 08:36:45;;;;;;;;;;;21.60;51.90;;;;;;5067741;28;19970;-58
2023/05/23 08:39:13;;;;;;;;;;;21.60;51.90;;;;;;5069686;28;20081;-58
2023/05/23 08:41:40;;;;;;;;;;;21.60;51.80;;;;;;5071135;28;19960;-58
2023/05/23 08:44:06;;;;;;;;;;;21.60;51.80;;;;;;5071089;28;19951;-58
2023/05/23 08:46:33;;;;;;;;;;;21.60;51.80;;;;;;5065912;28;19928;-58
2023/05/23 08:49:00;;;;;;;;;;;21.60;51.80;;;;;;5070946;28;20301;-57
2023/05/23 08:51:27;;;;;;;;;;;21.60;51.80;;;;;;5071597;28;19921;-57
2023/05/23 08:53:55;;;;;;;;;;;21.60;51.80;;;;;;5070763;28;20359;-57
2023/05/23 08:56:24;;;;;;;;;;;21.60;51.80;;;;;;5068526;28;19932;-55
2023/05/23 08:58:53;;;;;;;;;;;21.60;51.90;;;;;;5097237;28;20152;-57
2023/05/23 09:01:20;;;;;;;;;;;21.60;51.90;;;;;;5071663;28;19924;-56
2023/05/23 09:03:49;;;;;;;;;;;21.60;51.90;;;;;;5071188;28;19920;-56
2023/05/23 09:06:17;;;;;;;;;;;21.60;51.90;;;;;;5052987;28;19920;-56
2023/05/23 09:08:45;;;;;;;;;;;21.60;51.90;;;;;;5067280;28;20328;-57
2023/05/23 09:11:12;;;;;;;;;;;21.60;51.90;;;;;;5072124;28;19928;-56
2023/05/23 09:13:40;;;;;;;;;;;21.60;51.90;;;;;;5071210;28;19939;-56
2023/05/23 09:16:07;;;;;;;;;;;21.60;51.90;;;;;;5068313;28;19952;-57
2023/05/23 09:18:36;;;;;;;;;;;21.60;51.80;;;;;;5068721;28;20408;-56
2023/05/23 09:21:02;;;;;;;;;;;21.60;51.80;;;;;;5072760;28;20007;-57
2023/05/23 09:23:30;;;;;;;;;;;21.60;51.80;;;;;;5067849;28;19920;-57
2023/05/23 09:25:56;;;;;;;;;;;21.60;51.80;;;;;;5069914;28;19931;-57
2023/05/23 09:28:23;;;;;;;;;;;21.60;51.80;;;;;;5070108;28;19928;-55
2023/05/23 09:30:53;;;;;;;;;;;21.60;51.70;;;;;;5070175;28;20019;-58
2023/05/23 09:33:20;;;;;;;;;;;21.60;51.70;;;;;;5066244;28;20337;-56
2023/05/23 09:35:47;;;;;;;;;;;21.60;51.60;;;;;;5070910;28;19924;-58
2023/05/23 09:38:13;;;;;;;;;;;21.60;51.60;;;;;;5092539;28;19932;-57
2023/05/23 09:40:44;;;;;;;;;;;21.60;51.60;;;;;;5072771;28;19920;-57
2023/05/23 09:43:10;;;;;;;;;;;21.60;51.50;;;;;;5072186;28;19921;-57
2023/05/23 09:45:37;;;;;;;;;;;21.50;51.30;;;;;;5073352;28;20329;-57
2023/05/23 09:48:07;;;;;;;;;;;21.50;51.30;;;;;;5099675;27;19924;-57
2023/05/23 09:50:34;;;;;;;;;;;21.50;51.20;;;;;;5073819;28;20351;-56
2023/05/23 09:53:00;;;;;;;;;;;21.50;51.20;;;;;;5072586;28;20378;-58
2023/05/23 09:55:27;;;;;;;;;;;21.50;51.10;;;;;;5075224;28;20320;-56
2023/05/23 09:57:55;;;;;;;;;;;21.50;51.00;;;;;;5074432;28;19920;-57
2023/05/23 10:00:22;;;;;;;;;;;21.50;51.00;;;;;;5071857;28;19921;-58
2023/05/23 10:02:56;;;;;;;;;;;21.50;50.90;;;;;;5069753;28;20393;-58
2023/05/23 10:05:30;;;;;;;;;;;21.50;50.90;;;;;;5072159;28;19924;-58
2023/05/23 10:07:58;;;;;;;;;;;21.50;50.90;;;;;;5072513;28;19978;-58
2023/05/23 10:10:25;;;;;;;;;;;21.50;50.90;;;;;;5073006;28;19920;-56
2023/05/23 10:12:52;;;;;;;;;;;21.50;50.80;;;;;;5073086;28;20054;-58
2023/05/23 10:15:18;;;;;;;;;;;21.50;50.70;;;;;;5076667;28;19932;-58
2023/05/23 10:17:52;;;;;;;;;;;21.50;50.60;;;;;;5072929;28;19924;-59
2023/05/23 10:20:19;;;;;;;;;;;21.50;50.60;;;;;;5073879;28;19964;-58
2023/05/23 10:22:47;;;;;;;;;;;21.40;50.50;;;;;;5072163;28;19925;-58
2023/05/23 10:25:14;;;;;;;;;;;21.40;50.50;;;;;;5072877;28;20575;-57
2023/05/23 10:27:41;;;;;;;;;;;21.40;50.40;;;;;;5068843;28;19920;-57
2023/05/23 10:30:08;;;;;;;;;;;21.40;50.40;;;;;;5071667;28;19924;-58
2023/05/23 10:32:38;;;;;;;;;;;21.40;50.30;;;;;;5075328;28;19994;-56
2023/05/23 10:35:08;;;;;;;;;;;21.40;50.30;;;;;;5074524;28;20444;-58
2023/05/23 10:37:35;;;;;;;;;;;21.40;50.10;;;;;;5073303;28;19920;-58
2023/05/23 10:40:06;;;;;;;;;;;21.40;50.00;;;;;;5072243;28;19924;-58
2023/05/23 10:42:35;;;;;;;;;;;21.40;50.00;;;;;;5073833;28;19947;-57
2023/05/23 10:45:23;;;;;;;;;;;21.40;50.00;;;;;;5068491;28;19927;-58
2023/05/23 10:47:51;;;;;;;;;;;21.40;50.00;;;;;;5066612;28;19974;-59
2023/05/23 10:50:30;;;;;;;;;;;21.40;49.80;;;;;;5072376;28;20302;-58
2023/05/23 10:52:57;;;;;;;;;;;21.40;49.70;;;;;;5071756;28;19955;-58
2023/05/23 10:55:26;;;;;;;;;;;21.40;49.70;;;;;;5072583;28;19924;-55
2023/05/23 10:58:08;;;;;;;;;;;21.40;49.60;;;;;;5072556;28;19924;-58
2023/05/23 11:00:35;;;;;;;;;;;21.30;49.30;;;;;;5074226;28;19920;-58
2023/05/23 11:03:02;;;;;;;;;;;21.40;49.40;;;;;;5069550;28;19920;-57
2023/05/23 11:05:30;;;;;;;;;;;21.30;49.20;;;;;;5078139;28;19920;-56
2023/05/23 11:08:07;;;;;;;;;;;21.30;49.20;;;;;;5075053;28;19958;-58
2023/05/23 11:10:35;;;;;;;;;;;21.30;49.00;;;;;;5079127;28;20338;-57
2023/05/23 11:13:09;;;;;;;;;;;21.30;48.70;;;;;;5074629;28;19951;-57
2023/05/23 11:15:41;;;;;;;;;;;21.30;48.70;;;;;;5074894;28;20382;-58
2023/05/23 11:18:08;;;;;;;;;;;21.20;48.50;;;;;;5095481;28;19932;-57
2023/05/23 11:20:35;;;;;;;;;;;21.30;48.70;;;;;;5070103;28;19928;-58
2023/05/23 11:23:02;;;;;;;;;;;21.30;48.60;;;;;;5075952;28;20405;-58
2023/05/23 11:25:44;;;;;;;;;;;21.20;48.20;;;;;;5067397;28;20014;-56
2023/05/23 11:28:12;;;;;;;;;;;21.20;48.20;;;;;;5066673;28;19920;-55
2023/05/23 11:30:39;;;;;;;;;;;21.10;48.10;;;;;;5076395;28;19983;-57
2023/05/23 11:33:07;;;;;;;;;;;21.20;48.20;;;;;;5070739;28;19927;-58
2023/05/23 11:35:34;;;;;;;;;;;21.20;48.20;;;;;;5071986;28;20027;-57
2023/05/23 11:38:02;;;;;;;;;;;21.20;48.20;;;;;;5069247;28;19943;-57
2023/05/23 11:40:32;;;;;;;;;;;21.20;48.20;;;;;;5073226;28;19926;-57
2023/05/23 11:42:59;;;;;;;;;;;21.10;48.00;;;;;;5070482;28;19962;-57
2023/05/23 11:45:27;;;;;;;;;;;21.10;47.80;;;;;;5069114;28;19921;-55
2023/05/23 11:47:54;;;;;;;;;;;21.10;47.40;;;;;;5073672;28;19989;-57
2023/05/23 11:50:20;;;;;;;;;;;21.10;47.50;;;;;;5072150;28;20239;-55
2023/05/23 11:52:50;;;;;;;;;;;21.00;47.40;;;;;;5073984;28;19966;-56
2023/05/23 11:55:17;;;;;;;;;;;21.00;47.30;;;;;;5070407;28;19920;-57
2023/05/23 11:57:44;;;;;;;;;;;21.00;47.30;;;;;;5068896;28;20008;-56
2023/05/23 12:00:12;;;;;;;;;;;21.00;47.30;;;;;;5070961;28;19971;-57
2023/05/23 12:02:40;;;;;;;;;;;21.00;47.30;;;;;;5070022;28;19947;-57
2023/05/23 12:05:08;;;;;;;;;;;21.00;47.30;;;;;;5070463;28;19966;-58
2023/05/23 12:07:35;;;;;;;;;;;21.00;47.20;;;;;;5100314;27;20384;-58
2023/05/23 12:10:02;;;;;;;;;;;20.90;47.10;;;;;;5070166;28;19920;-56
2023/05/23 12:12:29;;;;;;;;;;;20.90;47.20;;;;;;5068762;28;20277;-57
2023/05/23 12:14:56;;;;;;;;;;;20.90;47.10;;;;;;5069201;28;19982;-58
2023/05/23 12:17:22;;;;;;;;;;;20.90;47.40;;;;;;5068331;28;19920;-55
2023/05/23 12:19:52;;;;;;;;;;;20.90;47.00;;;;;;5069230;28;19968;-58
2023/05/23 12:22:22;;;;;;;;;;;20.90;46.90;;;;;;5068678;28;19963;-58
2023/05/23 12:24:49;;;;;;;;;;;20.90;46.80;;;;;;5069371;28;19964;-58
2023/05/23 12:27:17;;;;;;;;;;;20.90;46.90;;;;;;5070676;28;19928;-57
2023/05/23 12:29:47;;;;;;;;;;;20.90;46.80;;;;;;5069180;28;19993;-57
2023/05/23 12:32:13;;;;;;;;;;;20.90;46.50;;;;;;5068519;28;19924;-57
2023/05/23 12:34:41;;;;;;;;;;;20.90;46.50;;;;;;5070510;28;19982;-57
2023/05/23 12:37:09;;;;;;;;;;;20.90;46.60;;;;;;5068952;28;19921;-55
2023/05/23 12:39:36;;;;;;;;;;;20.90;46.70;;;;;;5068561;28;19975;-58
2023/05/23 12:42:09;;;;;;;;;;;20.90;46.60;;;;;;5068869;28;19924;-58
2023/05/23 12:44:36;;;;;;;;;;;20.90;46.50;;;;;;5066869;28;19928;-58
2023/05/23 12:47:02;;;;;;;;;;;20.90;46.40;;;;;;5068822;28;19924;-57
2023/05/23 12:49:29;;;;;;;;;;;20.90;46.30;;;;;;5068423;28;19974;-56
2023/05/23 12:51:56;;;;;;;;;;;20.90;46.40;;;;;;5068885;28;19966;-56
2023/05/23 12:54:24;;;;;;;;;;;20.90;46.40;;;;;;5068272;28;19970;-56
2023/05/23 12:56:51;;;;;;;;;;;20.90;46.10;;;;;;5068523;28;20358;-58
2023/05/23 12:59:18;;;;;;;;;;;20.90;45.80;;;;;;5091409;28;19932;-58
2023/05/23 13:01:44;;;;;;;;;;;20.90;45.80;;;;;;5068817;28;19928;-58
2023/05/23 13:04:11;;;;;;;;;;;20.90;46.10;;;;;;5069838;28;19928;-58
2023/05/23 13:06:38;;;;;;;;;;;20.90;45.90;;;;;;5068954;28;19970;-57
2023/05/23 13:09:05;;;;;;;;;;;20.90;45.90;;;;;;5068835;28;19946;-58
2023/05/23 13:11:33;;;;;;;;;;;20.90;45.70;;;;;;5070517;28;19920;-58
2023/05/23 13:14:00;;;;;;;;;;;20.90;45.80;;;;;;5068880;28;19956;-58
2023/05/23 13:16:26;;;;;;;;;;;20.90;45.90;;;;;;5069480;28;19967;-57
2023/05/23 13:18:53;;;;;;;;;;;20.90;45.60;;;;;;5065888;28;19973;-57
2023/05/23 13:21:20;;;;;;;;;;;20.90;45.40;;;;;;5068664;28;19927;-58
2023/05/23 13:23:47;;;;;;;;;;;20.90;45.60;;;;;;5093557;28;19985;-57
2023/05/23 13:26:14;;;;;;;;;;;20.90;45.60;;;;;;5065938;28;19921;-57
2023/05/23 13:28:42;;;;;;;;;;;20.90;45.70;;;;;;5067530;28;19920;-58
2023/05/23 13:31:09;;;;;;;;;;;21.00;45.70;;;;;;5068612;28;20415;-57
2023/05/23 13:33:36;;;;;;;;;;;21.00;45.40;;;;;;5070117;28;19931;-58
2023/05/23 13:36:03;;;;;;;;;;;21.00;45.00;;;;;;5068913;28;20370;-58
2023/05/23 13:38:31;;;;;;;;;;;20.90;44.80;;;;;;5068961;28;20446;-57
2023/05/23 13:40:58;;;;;;;;;;;20.90;44.50;;;;;;5068501;28;19931;-55
2023/05/23 13:43:25;;;;;;;;;;;20.90;44.80;;;;;;5071540;28;19932;-53
2023/05/23 13:45:53;;;;;;;;;;;20.90;44.80;;;;;;5073557;28;20023;-55
2023/05/23 13:48:20;;;;;;;;;;;20.90;44.90;;;;;;5069599;28;19924;-57
2023/05/23 13:50:47;;;;;;;;;;;20.90;44.80;;;;;;5072342;28;19973;-60
2023/05/23 13:53:15;;;;;;;;;;;20.90;44.80;;;;;;5065343;28;19956;-58
2023/05/23 13:55:43;;;;;;;;;;;20.90;44.80;;;;;;5071363;28;20014;-58
2023/05/23 13:58:11;;;;;;;;;;;20.90;44.80;;;;;;5071404;28;19943;-59
2023/05/23 14:00:37;;;;;;;;;;;20.90;44.40;;;;;;5093656;28;19925;-58
2023/05/23 14:03:06;;;;;;;;;;;20.90;44.20;;;;;;5073069;28;19921;-60
2023/05/23 14:05:33;;;;;;;;;;;20.90;44.10;;;;;;5073957;28;19999;-55
2023/05/23 14:08:00;;;;;;;;;;;20.90;44.10;;;;;;5093688;28;20266;-56
2023/05/23 14:10:28;;;;;;;;;;;20.90;44.30;;;;;;5071306;28;19924;-58
2023/05/23 14:12:55;;;;;;;;;;;20.90;44.30;;;;;;5099059;28;19944;-58
2023/05/23 14:15:21;;;;;;;;;;;20.80;44.30;;;;;;5071515;28;20268;-57
2023/05/23 14:17:53;;;;;;;;;;;20.90;44.40;;;;;;5097704;28;19924;-58